sensor_id;sensor_type;location;lat;lon;timestamp;P1;durP1;ratioP1;P2;durP2;ratioP2
55493;SDS011;41355;50.390;19.096;2023-02-01T00:01:28;57.28;;;18.65;;
55493;SDS011;41355;50.390;19.096;2023-02-01T00:03:54;70.50;;;21.42;;
55493;SDS011;41355;50.390;19.096;2023-02-01T00:06:21;82.25;;;22.10;;
55493;SDS011;41355;50.390;19.096;2023-02-01T00:08:47;59.72;;;18.58;;
55493;SDS011;41355;50.390;19.096;2023-02-01T00:11:13;60.72;;;18.95;;
55493;SDS011;41355;50.390;19.096;2023-02-01T00:13:40;47.28;;;15.73;;
55493;SDS011;41355;50.390;19.096;2023-02-01T00:16:10;89.20;;;26.17;;
55493;SDS011;41355;50.390;19.096;2023-02-01T00:18:37;72.57;;;21.17;;
55493;SDS011;41355;50.390;19.096;2023-02-01T00:21:03;46.85;;;16.48;;
55493;SDS011;41355;50.390;19.096;2023-02-01T00:23:31;55.78;;;16.25;;
55493;SDS011;41355;50.390;19.096;2023-02-01T00:25:59;42.97;;;13.32;;
55493;SDS011;41355;50.390;19.096;2023-02-01T00:28:26;47.03;;;15.63;;
55493;SDS011;41355;50.390;19.096;2023-02-01T00:30:56;37.38;;;14.95;;
55493;SDS011;41355;50.390;19.096;2023-02-01T00:33:22;66.47;;;19.75;;
55493;SDS011;41355;50.390;19.096;2023-02-01T00:35:48;59.83;;;18.63;;
55493;SDS011;41355;50.390;19.096;2023-02-01T00:38:14;107.50;;;28.27;;
55493;SDS011;41355;50.390;19.096;2023-02-01T00:40:40;95.63;;;24.85;;
55493;SDS011;41355;50.390;19.096;2023-02-01T00:43:06;90.63;;;25.10;;
55493;SDS011;41355;50.390;19.096;2023-02-01T00:45:32;59.97;;;19.08;;
55493;SDS011;41355;50.390;19.096;2023-02-01T00:47:58;89.07;;;24.23;;
55493;SDS011;41355;50.390;19.096;2023-02-01T00:50:24;53.97;;;19.13;;
55493;SDS011;41355;50.390;19.096;2023-02-01T00:52:50;58.33;;;17.52;;
55493;SDS011;41355;50.390;19.096;2023-02-01T00:55:16;27.75;;;8.18;;
55493;SDS011;41355;50.390;19.096;2023-02-01T00:57:42;19.50;;;5.30;;
55493;SDS011;41355;50.390;19.096;2023-02-01T01:00:09;31.23;;;9.50;;
55493;SDS011;41355;50.390;19.096;2023-02-01T01:02:35;51.40;;;12.23;;
55493;SDS011;41355;50.390;19.096;2023-02-01T01:05:01;55.67;;;9.70;;
55493;SDS011;41355;50.390;19.096;2023-02-01T01:07:27;19.85;;;5.03;;
55493;SDS011;41355;50.390;19.096;2023-02-01T01:09:53;14.00;;;4.90;;
55493;SDS011;41355;50.390;19.096;2023-02-01T01:12:19;41.00;;;8.18;;
55493;SDS011;41355;50.390;19.096;2023-02-01T01:14:45;85.80;;;20.27;;
55493;SDS011;41355;50.390;19.096;2023-02-01T01:17:11;46.58;;;12.60;;
55493;SDS011;41355;50.390;19.096;2023-02-01T01:19:37;50.58;;;14.48;;
55493;SDS011;41355;50.390;19.096;2023-02-01T01:22:03;34.45;;;9.10;;
55493;SDS011;41355;50.390;19.096;2023-02-01T01:24:29;27.58;;;7.82;;
55493;SDS011;41355;50.390;19.096;2023-02-01T01:26:55;22.00;;;6.90;;
55493;SDS011;41355;50.390;19.096;2023-02-01T01:29:21;19.92;;;5.53;;
55493;SDS011;41355;50.390;19.096;2023-02-01T01:31:48;43.47;;;8.68;;
55493;SDS011;41355;50.390;19.096;2023-02-01T01:34:14;22.38;;;5.95;;
55493;SDS011;41355;50.390;19.096;2023-02-01T01:36:40;16.25;;;5.10;;
55493;SDS011;41355;50.390;19.096;2023-02-01T01:39:06;22.30;;;5.80;;
55493;SDS011;41355;50.390;19.096;2023-02-01T01:41:32;33.30;;;10.07;;
55493;SDS011;41355;50.390;19.096;2023-02-01T01:46:27;24.98;;;7.57;;
55493;SDS011;41355;50.390;19.096;2023-02-01T01:49:15;24.15;;;6.57;;
55493;SDS011;41355;50.390;19.096;2023-02-01T01:51:44;23.25;;;5.18;;
55493;SDS011;41355;50.390;19.096;2023-02-01T01:54:17;12.38;;;3.85;;
55493;SDS011;41355;50.390;19.096;2023-02-01T01:56:46;16.10;;;4.20;;
55493;SDS011;41355;50.390;19.096;2023-02-01T01:59:14;17.05;;;4.00;;
55493;SDS011;41355;50.390;19.096;2023-02-01T02:01:40;11.63;;;3.78;;
55493;SDS011;41355;50.390;19.096;2023-02-01T02:04:06;10.80;;;2.10;;
55493;SDS011;41355;50.390;19.096;2023-02-01T02:08:59;19.48;;;4.82;;
55493;SDS011;41355;50.390;19.096;2023-02-01T02:11:25;16.13;;;3.15;;
55493;SDS011;41355;50.390;19.096;2023-02-01T02:13:52;13.18;;;3.70;;
55493;SDS011;41355;50.390;19.096;2023-02-01T02:16:35;14.15;;;3.08;;
55493;SDS011;41355;50.390;19.096;2023-02-01T02:30:02;17.75;;;4.25;;
55493;SDS011;41355;50.390;19.096;2023-02-01T02:37:49;19.05;;;3.75;;
55493;SDS011;41355;50.390;19.096;2023-02-01T02:40:37;18.55;;;3.88;;
55493;SDS011;41355;50.390;19.096;2023-02-01T02:43:12;16.92;;;4.05;;
55493;SDS011;41355;50.390;19.096;2023-02-01T02:48:44;16.52;;;3.10;;
55493;SDS011;41355;50.390;19.096;2023-02-01T02:51:15;12.90;;;3.38;;
55493;SDS011;41355;50.390;19.096;2023-02-01T02:54:11;15.65;;;5.78;;
55493;SDS011;41355;50.390;19.096;2023-02-01T02:56:56;16.77;;;5.20;;
55493;SDS011;41355;50.390;19.096;2023-02-01T02:59:42;16.83;;;3.60;;
55493;SDS011;41355;50.390;19.096;2023-02-01T03:02:27;16.83;;;3.85;;
55493;SDS011;41355;50.390;19.096;2023-02-01T03:05:12;14.80;;;4.75;;
55493;SDS011;41355;50.390;19.096;2023-02-01T03:10:13;16.95;;;5.20;;
55493;SDS011;41355;50.390;19.096;2023-02-01T03:12:39;9.85;;;3.70;;
55493;SDS011;41355;50.390;19.096;2023-02-01T03:15:45;19.38;;;5.13;;
55493;SDS011;41355;50.390;19.096;2023-02-01T03:18:13;19.90;;;4.78;;
55493;SDS011;41355;50.390;19.096;2023-02-01T03:20:42;17.88;;;4.95;;
55493;SDS011;41355;50.390;19.096;2023-02-01T03:23:09;22.10;;;5.75;;
55493;SDS011;41355;50.390;19.096;2023-02-01T03:25:36;20.33;;;5.05;;
55493;SDS011;41355;50.390;19.096;2023-02-01T03:28:07;59.75;;;16.80;;
55493;SDS011;41355;50.390;19.096;2023-02-01T03:30:36;62.40;;;13.68;;
55493;SDS011;41355;50.390;19.096;2023-02-01T03:33:05;68.97;;;18.35;;
55493;SDS011;41355;50.390;19.096;2023-02-01T03:35:47;26.65;;;7.85;;
55493;SDS011;41355;50.390;19.096;2023-02-01T03:40:48;50.45;;;17.08;;
55493;SDS011;41355;50.390;19.096;2023-02-01T03:43:16;22.60;;;6.20;;
55493;SDS011;41355;50.390;19.096;2023-02-01T03:45:43;19.58;;;4.40;;
55493;SDS011;41355;50.390;19.096;2023-02-01T03:48:12;27.77;;;6.75;;
55493;SDS011;41355;50.390;19.096;2023-02-01T03:50:39;20.55;;;7.13;;
55493;SDS011;41355;50.390;19.096;2023-02-01T03:53:10;65.57;;;15.23;;
55493;SDS011;41355;50.390;19.096;2023-02-01T03:55:38;29.55;;;7.80;;
55493;SDS011;41355;50.390;19.096;2023-02-01T03:58:25;64.88;;;8.57;;
55493;SDS011;41355;50.390;19.096;2023-02-01T04:00:54;49.97;;;9.85;;
55493;SDS011;41355;50.390;19.096;2023-02-01T04:03:21;30.48;;;4.93;;
55493;SDS011;41355;50.390;19.096;2023-02-01T04:05:48;41.13;;;8.90;;
55493;SDS011;41355;50.390;19.096;2023-02-01T04:08:14;63.40;;;14.85;;
55493;SDS011;41355;50.390;19.096;2023-02-01T04:10:40;38.80;;;10.65;;
55493;SDS011;41355;50.390;19.096;2023-02-01T04:13:06;40.17;;;8.25;;
55493;SDS011;41355;50.390;19.096;2023-02-01T04:15:32;44.70;;;11.82;;
55493;SDS011;41355;50.390;19.096;2023-02-01T04:17:59;91.75;;;17.25;;
55493;SDS011;41355;50.390;19.096;2023-02-01T04:20:26;61.63;;;11.98;;
55493;SDS011;41355;50.390;19.096;2023-02-01T04:22:52;23.35;;;5.88;;
55493;SDS011;41355;50.390;19.096;2023-02-01T04:25:18;21.83;;;6.20;;
55493;SDS011;41355;50.390;19.096;2023-02-01T04:27:44;44.70;;;11.98;;
55493;SDS011;41355;50.390;19.096;2023-02-01T04:30:10;68.28;;;11.40;;
55493;SDS011;41355;50.390;19.096;2023-02-01T04:32:37;25.23;;;6.75;;
55493;SDS011;41355;50.390;19.096;2023-02-01T04:35:03;17.52;;;5.90;;
55493;SDS011;41355;50.390;19.096;2023-02-01T04:37:31;32.05;;;7.97;;
55493;SDS011;41355;50.390;19.096;2023-02-01T04:39:57;31.73;;;7.88;;
55493;SDS011;41355;50.390;19.096;2023-02-01T04:42:23;49.17;;;10.85;;
55493;SDS011;41355;50.390;19.096;2023-02-01T04:44:49;53.17;;;12.43;;
55493;SDS011;41355;50.390;19.096;2023-02-01T04:47:15;80.28;;;22.38;;
55493;SDS011;41355;50.390;19.096;2023-02-01T04:49:41;64.72;;;10.65;;
55493;SDS011;41355;50.390;19.096;2023-02-01T04:52:07;47.88;;;7.75;;
55493;SDS011;41355;50.390;19.096;2023-02-01T04:54:33;42.22;;;9.20;;
55493;SDS011;41355;50.390;19.096;2023-02-01T04:56:59;57.45;;;13.27;;
55493;SDS011;41355;50.390;19.096;2023-02-01T04:59:26;107.32;;;23.73;;
55493;SDS011;41355;50.390;19.096;2023-02-01T05:01:53;103.03;;;20.48;;
55493;SDS011;41355;50.390;19.096;2023-02-01T05:04:19;97.00;;;20.85;;
55493;SDS011;41355;50.390;19.096;2023-02-01T05:06:45;96.40;;;24.35;;
55493;SDS011;41355;50.390;19.096;2023-02-01T05:09:11;77.82;;;22.15;;
55493;SDS011;41355;50.390;19.096;2023-02-01T05:11:37;132.20;;;31.25;;
55493;SDS011;41355;50.390;19.096;2023-02-01T05:14:22;121.53;;;29.10;;
55493;SDS011;41355;50.390;19.096;2023-02-01T05:16:48;82.68;;;19.70;;
55493;SDS011;41355;50.390;19.096;2023-02-01T05:19:14;85.32;;;20.85;;
55493;SDS011;41355;50.390;19.096;2023-02-01T05:21:40;107.93;;;24.90;;
55493;SDS011;41355;50.390;19.096;2023-02-01T05:24:07;105.80;;;25.25;;
55493;SDS011;41355;50.390;19.096;2023-02-01T05:26:45;104.55;;;21.88;;
55493;SDS011;41355;50.390;19.096;2023-02-01T05:29:11;48.60;;;14.25;;
55493;SDS011;41355;50.390;19.096;2023-02-01T05:31:38;67.97;;;21.98;;
55493;SDS011;41355;50.390;19.096;2023-02-01T05:34:04;145.90;;;30.80;;
55493;SDS011;41355;50.390;19.096;2023-02-01T05:36:30;159.90;;;39.08;;
55493;SDS011;41355;50.390;19.096;2023-02-01T05:38:57;99.47;;;23.73;;
55493;SDS011;41355;50.390;19.096;2023-02-01T05:41:23;76.50;;;16.70;;
55493;SDS011;41355;50.390;19.096;2023-02-01T05:43:49;64.55;;;13.73;;
55493;SDS011;41355;50.390;19.096;2023-02-01T05:46:15;152.02;;;30.60;;
55493;SDS011;41355;50.390;19.096;2023-02-01T05:48:41;150.18;;;33.45;;
55493;SDS011;41355;50.390;19.096;2023-02-01T05:51:08;86.90;;;23.35;;
55493;SDS011;41355;50.390;19.096;2023-02-01T05:53:34;109.00;;;26.02;;
55493;SDS011;41355;50.390;19.096;2023-02-01T05:56:01;124.18;;;28.80;;
55493;SDS011;41355;50.390;19.096;2023-02-01T05:58:30;215.05;;;37.72;;
55493;SDS011;41355;50.390;19.096;2023-02-01T06:00:58;126.95;;;28.05;;
55493;SDS011;41355;50.390;19.096;2023-02-01T06:03:25;124.30;;;26.25;;
55493;SDS011;41355;50.390;19.096;2023-02-01T06:05:51;132.93;;;29.15;;
55493;SDS011;41355;50.390;19.096;2023-02-01T06:08:17;129.20;;;30.00;;
55493;SDS011;41355;50.390;19.096;2023-02-01T06:10:43;106.57;;;24.67;;
55493;SDS011;41355;50.390;19.096;2023-02-01T06:13:09;106.63;;;23.90;;
55493;SDS011;41355;50.390;19.096;2023-02-01T06:15:35;103.40;;;22.60;;
55493;SDS011;41355;50.390;19.096;2023-02-01T06:20:55;88.07;;;24.52;;
55493;SDS011;41355;50.390;19.096;2023-02-01T06:23:22;104.75;;;24.75;;
55493;SDS011;41355;50.390;19.096;2023-02-01T06:26:07;67.53;;;14.80;;
55493;SDS011;41355;50.390;19.096;2023-02-01T06:28:33;50.22;;;12.18;;
55493;SDS011;41355;50.390;19.096;2023-02-01T06:31:02;61.38;;;12.23;;
55493;SDS011;41355;50.390;19.096;2023-02-01T06:33:28;75.38;;;23.17;;
55493;SDS011;41355;50.390;19.096;2023-02-01T06:35:58;80.18;;;21.48;;
55493;SDS011;41355;50.390;19.096;2023-02-01T06:38:25;72.63;;;16.70;;
55493;SDS011;41355;50.390;19.096;2023-02-01T06:40:51;84.50;;;23.10;;
55493;SDS011;41355;50.390;19.096;2023-02-01T06:43:17;55.30;;;14.45;;
55493;SDS011;41355;50.390;19.096;2023-02-01T06:45:43;50.83;;;13.48;;
55493;SDS011;41355;50.390;19.096;2023-02-01T06:48:09;272.00;;;67.05;;
55493;SDS011;41355;50.390;19.096;2023-02-01T06:50:36;558.03;;;140.10;;
55493;SDS011;41355;50.390;19.096;2023-02-01T06:53:02;405.38;;;86.93;;
55493;SDS011;41355;50.390;19.096;2023-02-01T06:55:28;512.63;;;140.55;;
55493;SDS011;41355;50.390;19.096;2023-02-01T06:57:54;415.55;;;98.47;;
55493;SDS011;41355;50.390;19.096;2023-02-01T07:00:21;345.13;;;98.18;;
55493;SDS011;41355;50.390;19.096;2023-02-01T07:02:47;342.30;;;107.30;;
55493;SDS011;41355;50.390;19.096;2023-02-01T07:05:15;363.15;;;124.30;;
55493;SDS011;41355;50.390;19.096;2023-02-01T07:07:41;220.27;;;79.47;;
55493;SDS011;41355;50.390;19.096;2023-02-01T07:10:07;85.22;;;27.67;;
55493;SDS011;41355;50.390;19.096;2023-02-01T07:12:33;109.25;;;38.10;;
55493;SDS011;41355;50.390;19.096;2023-02-01T07:14:59;72.72;;;22.88;;
55493;SDS011;41355;50.390;19.096;2023-02-01T07:17:27;55.97;;;21.23;;
55493;SDS011;41355;50.390;19.096;2023-02-01T07:19:54;103.05;;;28.05;;
55493;SDS011;41355;50.390;19.096;2023-02-01T07:22:20;72.68;;;25.23;;
55493;SDS011;41355;50.390;19.096;2023-02-01T07:24:46;60.80;;;20.67;;
55493;SDS011;41355;50.390;19.096;2023-02-01T07:27:12;25.98;;;10.90;;
55493;SDS011;41355;50.390;19.096;2023-02-01T07:29:38;42.35;;;9.52;;
55493;SDS011;41355;50.390;19.096;2023-02-01T07:32:05;32.40;;;11.18;;
55493;SDS011;41355;50.390;19.096;2023-02-01T07:34:31;36.03;;;10.85;;
55493;SDS011;41355;50.390;19.096;2023-02-01T07:36:57;47.08;;;10.43;;
55493;SDS011;41355;50.390;19.096;2023-02-01T07:39:23;27.63;;;9.27;;
55493;SDS011;41355;50.390;19.096;2023-02-01T07:41:50;46.00;;;15.68;;
55493;SDS011;41355;50.390;19.096;2023-02-01T07:44:16;22.95;;;10.18;;
55493;SDS011;41355;50.390;19.096;2023-02-01T07:46:47;51.25;;;13.98;;
55493;SDS011;41355;50.390;19.096;2023-02-01T07:49:13;57.17;;;13.13;;
55493;SDS011;41355;50.390;19.096;2023-02-01T07:51:39;55.78;;;14.07;;
55493;SDS011;41355;50.390;19.096;2023-02-01T07:54:05;61.83;;;20.67;;
55493;SDS011;41355;50.390;19.096;2023-02-01T07:56:31;37.13;;;12.18;;
55493;SDS011;41355;50.390;19.096;2023-02-01T07:58:57;41.63;;;10.52;;
55493;SDS011;41355;50.390;19.096;2023-02-01T08:01:26;44.08;;;10.65;;
55493;SDS011;41355;50.390;19.096;2023-02-01T08:03:54;51.45;;;16.45;;
55493;SDS011;41355;50.390;19.096;2023-02-01T08:06:21;43.28;;;13.30;;
55493;SDS011;41355;50.390;19.096;2023-02-01T08:08:47;48.97;;;12.30;;
55493;SDS011;41355;50.390;19.096;2023-02-01T08:11:14;46.30;;;14.05;;
55493;SDS011;41355;50.390;19.096;2023-02-01T08:13:40;50.83;;;15.80;;
55493;SDS011;41355;50.390;19.096;2023-02-01T08:16:07;66.43;;;15.25;;
55493;SDS011;41355;50.390;19.096;2023-02-01T08:18:33;141.60;;;34.38;;
55493;SDS011;41355;50.390;19.096;2023-02-01T08:21:04;49.17;;;16.55;;
55493;SDS011;41355;50.390;19.096;2023-02-01T08:23:30;65.45;;;15.80;;
55493;SDS011;41355;50.390;19.096;2023-02-01T08:26:16;90.30;;;21.55;;
55493;SDS011;41355;50.390;19.096;2023-02-01T08:28:46;61.53;;;21.15;;
55493;SDS011;41355;50.390;19.096;2023-02-01T08:31:14;63.88;;;19.30;;
55493;SDS011;41355;50.390;19.096;2023-02-01T08:33:41;40.25;;;12.50;;
55493;SDS011;41355;50.390;19.096;2023-02-01T08:36:07;157.90;;;43.13;;
55493;SDS011;41355;50.390;19.096;2023-02-01T08:38:37;78.80;;;24.63;;
55493;SDS011;41355;50.390;19.096;2023-02-01T08:41:07;95.50;;;21.60;;
55493;SDS011;41355;50.390;19.096;2023-02-01T08:43:33;128.68;;;37.58;;
55493;SDS011;41355;50.390;19.096;2023-02-01T08:46:00;78.20;;;18.08;;
55493;SDS011;41355;50.390;19.096;2023-02-01T08:48:26;79.18;;;18.85;;
55493;SDS011;41355;50.390;19.096;2023-02-01T08:50:52;76.72;;;20.35;;
55493;SDS011;41355;50.390;19.096;2023-02-01T08:53:18;159.75;;;42.58;;
55493;SDS011;41355;50.390;19.096;2023-02-01T08:55:47;86.57;;;26.15;;
55493;SDS011;41355;50.390;19.096;2023-02-01T08:58:13;394.65;;;91.20;;
55493;SDS011;41355;50.390;19.096;2023-02-01T09:00:41;268.48;;;62.17;;
55493;SDS011;41355;50.390;19.096;2023-02-01T09:03:09;238.88;;;60.90;;
55493;SDS011;41355;50.390;19.096;2023-02-01T09:05:36;94.07;;;25.73;;
55493;SDS011;41355;50.390;19.096;2023-02-01T09:08:02;297.83;;;73.82;;
55493;SDS011;41355;50.390;19.096;2023-02-01T09:10:28;246.45;;;65.05;;
55493;SDS011;41355;50.390;19.096;2023-02-01T09:12:54;290.27;;;88.95;;
55493;SDS011;41355;50.390;19.096;2023-02-01T09:15:20;222.73;;;57.33;;
55493;SDS011;41355;50.390;19.096;2023-02-01T09:17:46;79.88;;;21.77;;
55493;SDS011;41355;50.390;19.096;2023-02-01T09:20:12;57.45;;;19.48;;
55493;SDS011;41355;50.390;19.096;2023-02-01T09:22:38;61.45;;;16.15;;
55493;SDS011;41355;50.390;19.096;2023-02-01T09:25:05;69.05;;;20.13;;
55493;SDS011;41355;50.390;19.096;2023-02-01T09:27:31;67.32;;;19.77;;
55493;SDS011;41355;50.390;19.096;2023-02-01T09:29:58;75.43;;;19.33;;
55493;SDS011;41355;50.390;19.096;2023-02-01T09:32:24;71.50;;;17.85;;
55493;SDS011;41355;50.390;19.096;2023-02-01T09:34:50;78.80;;;20.10;;
55493;SDS011;41355;50.390;19.096;2023-02-01T09:37:17;95.20;;;22.95;;
55493;SDS011;41355;50.390;19.096;2023-02-01T09:39:43;61.78;;;16.20;;
55493;SDS011;41355;50.390;19.096;2023-02-01T09:47:20;50.28;;;15.35;;
55493;SDS011;41355;50.390;19.096;2023-02-01T09:49:59;68.28;;;22.02;;
55493;SDS011;41355;50.390;19.096;2023-02-01T09:52:40;128.88;;;42.80;;
55493;SDS011;41355;50.390;19.096;2023-02-01T09:55:14;102.05;;;28.20;;
55493;SDS011;41355;50.390;19.096;2023-02-01T10:00:13;46.00;;;15.20;;
55493;SDS011;41355;50.390;19.096;2023-02-01T10:02:40;126.68;;;30.58;;
55493;SDS011;41355;50.390;19.096;2023-02-01T10:05:10;184.40;;;40.08;;
55493;SDS011;41355;50.390;19.096;2023-02-01T10:07:42;156.15;;;37.10;;
55493;SDS011;41355;50.390;19.096;2023-02-01T10:10:29;169.95;;;43.22;;
55493;SDS011;41355;50.390;19.096;2023-02-01T10:12:59;96.88;;;26.45;;
55493;SDS011;41355;50.390;19.096;2023-02-01T10:25:41;104.88;;;28.50;;
55493;SDS011;41355;50.390;19.096;2023-02-01T10:28:12;48.45;;;12.55;;
55493;SDS011;41355;50.390;19.096;2023-02-01T10:30:41;56.35;;;18.15;;
55493;SDS011;41355;50.390;19.096;2023-02-01T10:35:44;72.82;;;21.63;;
55493;SDS011;41355;50.390;19.096;2023-02-01T10:40:53;60.15;;;17.58;;
55493;SDS011;41355;50.390;19.096;2023-02-01T10:43:21;81.45;;;23.98;;
55493;SDS011;41355;50.390;19.096;2023-02-01T10:45:47;85.50;;;25.95;;
55493;SDS011;41355;50.390;19.096;2023-02-01T10:48:13;54.63;;;15.98;;
55493;SDS011;41355;50.390;19.096;2023-02-01T10:50:58;66.70;;;17.88;;
55493;SDS011;41355;50.390;19.096;2023-02-01T10:53:28;62.75;;;17.73;;
55493;SDS011;41355;50.390;19.096;2023-02-01T10:55:56;105.30;;;31.45;;
55493;SDS011;41355;50.390;19.096;2023-02-01T10:58:29;130.77;;;30.88;;
55493;SDS011;41355;50.390;19.096;2023-02-01T11:01:03;92.35;;;22.80;;
55493;SDS011;41355;50.390;19.096;2023-02-01T11:03:41;76.75;;;21.92;;
55493;SDS011;41355;50.390;19.096;2023-02-01T11:08:54;81.82;;;23.08;;
55493;SDS011;41355;50.390;19.096;2023-02-01T11:11:21;82.25;;;29.88;;
55493;SDS011;41355;50.390;19.096;2023-02-01T11:13:51;74.25;;;23.30;;
55493;SDS011;41355;50.390;19.096;2023-02-01T11:16:18;60.53;;;17.83;;
55493;SDS011;41355;50.390;19.096;2023-02-01T11:18:44;42.63;;;13.50;;
55493;SDS011;41355;50.390;19.096;2023-02-01T11:21:14;52.40;;;18.08;;
55493;SDS011;41355;50.390;19.096;2023-02-01T11:23:41;52.47;;;17.38;;
55493;SDS011;41355;50.390;19.096;2023-02-01T11:26:15;128.63;;;40.80;;
55493;SDS011;41355;50.390;19.096;2023-02-01T11:28:53;105.45;;;33.15;;
55493;SDS011;41355;50.390;19.096;2023-02-01T11:31:20;60.88;;;20.58;;
55493;SDS011;41355;50.390;19.096;2023-02-01T11:33:48;75.90;;;27.35;;
55493;SDS011;41355;50.390;19.096;2023-02-01T11:36:15;91.70;;;26.85;;
55493;SDS011;41355;50.390;19.096;2023-02-01T11:38:53;23.25;;;8.88;;
55493;SDS011;41355;50.390;19.096;2023-02-01T11:41:26;19.38;;;5.55;;
55493;SDS011;41355;50.390;19.096;2023-02-01T11:46:23;45.95;;;16.00;;
55493;SDS011;41355;50.390;19.096;2023-02-01T11:48:51;39.22;;;13.10;;
55493;SDS011;41355;50.390;19.096;2023-02-01T11:54:02;21.73;;;8.18;;
55493;SDS011;41355;50.390;19.096;2023-02-01T11:56:40;56.05;;;14.00;;
55493;SDS011;41355;50.390;19.096;2023-02-01T12:07:03;124.10;;;33.80;;
55493;SDS011;41355;50.390;19.096;2023-02-01T12:09:34;441.48;;;112.90;;
55493;SDS011;41355;50.390;19.096;2023-02-01T12:14:56;325.65;;;87.25;;
55493;SDS011;41355;50.390;19.096;2023-02-01T12:28:19;63.88;;;19.60;;
55493;SDS011;41355;50.390;19.096;2023-02-01T12:31:10;41.90;;;12.27;;
55493;SDS011;41355;50.390;19.096;2023-02-01T12:33:46;78.50;;;20.13;;
55493;SDS011;41355;50.390;19.096;2023-02-01T12:39:22;134.73;;;32.00;;
55493;SDS011;41355;50.390;19.096;2023-02-01T12:41:51;101.15;;;25.65;;
55493;SDS011;41355;50.390;19.096;2023-02-01T12:44:42;43.55;;;13.05;;
55493;SDS011;41355;50.390;19.096;2023-02-01T12:49:35;71.45;;;18.98;;
55493;SDS011;41355;50.390;19.096;2023-02-01T12:52:07;46.72;;;15.00;;
55493;SDS011;41355;50.390;19.096;2023-02-01T12:54:38;35.28;;;9.98;;
55493;SDS011;41355;50.390;19.096;2023-02-01T12:57:10;47.25;;;14.63;;
55493;SDS011;41355;50.390;19.096;2023-02-01T12:59:39;45.75;;;15.93;;
55493;SDS011;41355;50.390;19.096;2023-02-01T13:07:20;81.75;;;21.80;;
55493;SDS011;41355;50.390;19.096;2023-02-01T13:10:11;33.92;;;9.15;;
55493;SDS011;41355;50.390;19.096;2023-02-01T13:12:49;17.42;;;5.90;;
55493;SDS011;41355;50.390;19.096;2023-02-01T13:15:17;26.38;;;8.60;;
55493;SDS011;41355;50.390;19.096;2023-02-01T13:17:45;15.40;;;7.60;;
55493;SDS011;41355;50.390;19.096;2023-02-01T13:23:05;19.77;;;7.45;;
55493;SDS011;41355;50.390;19.096;2023-02-01T13:25:46;23.67;;;8.88;;
55493;SDS011;41355;50.390;19.096;2023-02-01T13:28:16;31.40;;;9.10;;
55493;SDS011;41355;50.390;19.096;2023-02-01T13:43:49;290.95;;;66.40;;
55493;SDS011;41355;50.390;19.096;2023-02-01T13:46:16;75.00;;;23.83;;
55493;SDS011;41355;50.390;19.096;2023-02-01T13:51:11;269.02;;;68.13;;
55493;SDS011;41355;50.390;19.096;2023-02-01T13:53:38;69.45;;;23.73;;
55493;SDS011;41355;50.390;19.096;2023-02-01T13:56:11;202.70;;;56.22;;
55493;SDS011;41355;50.390;19.096;2023-02-01T13:58:40;60.20;;;22.90;;
55493;SDS011;41355;50.390;19.096;2023-02-01T14:03:54;354.00;;;97.38;;
55493;SDS011;41355;50.390;19.096;2023-02-01T14:09:09;248.52;;;78.50;;
55493;SDS011;41355;50.390;19.096;2023-02-01T14:16:43;238.43;;;54.38;;
55493;SDS011;41355;50.390;19.096;2023-02-01T14:19:22;368.15;;;96.07;;
55493;SDS011;41355;50.390;19.096;2023-02-01T14:21:50;141.35;;;36.88;;
55493;SDS011;41355;50.390;19.096;2023-02-01T14:24:25;112.95;;;37.55;;
55493;SDS011;41355;50.390;19.096;2023-02-01T14:26:53;310.73;;;89.90;;
55493;SDS011;41355;50.390;19.096;2023-02-01T14:42:06;76.45;;;24.58;;
55493;SDS011;41355;50.390;19.096;2023-02-01T14:44:40;239.10;;;61.28;;
55493;SDS011;41355;50.390;19.096;2023-02-01T14:49:55;144.52;;;43.50;;
55493;SDS011;41355;50.390;19.096;2023-02-01T14:52:23;115.03;;;33.13;;
55493;SDS011;41355;50.390;19.096;2023-02-01T14:54:55;125.15;;;38.63;;
55493;SDS011;41355;50.390;19.096;2023-02-01T14:57:23;258.55;;;78.65;;
55493;SDS011;41355;50.390;19.096;2023-02-01T14:59:53;174.23;;;53.35;;
55493;SDS011;41355;50.390;19.096;2023-02-01T15:02:23;159.55;;;45.42;;
55493;SDS011;41355;50.390;19.096;2023-02-01T15:04:53;165.82;;;47.55;;
55493;SDS011;41355;50.390;19.096;2023-02-01T15:07:19;128.35;;;39.42;;
55493;SDS011;41355;50.390;19.096;2023-02-01T15:09:46;145.13;;;45.03;;
55493;SDS011;41355;50.390;19.096;2023-02-01T15:14:40;199.30;;;57.78;;
55493;SDS011;41355;50.390;19.096;2023-02-01T15:17:20;362.42;;;88.60;;
55493;SDS011;41355;50.390;19.096;2023-02-01T15:19:56;414.80;;;107.00;;
55493;SDS011;41355;50.390;19.096;2023-02-01T15:22:23;284.80;;;72.32;;
55493;SDS011;41355;50.390;19.096;2023-02-01T15:24:55;292.83;;;71.53;;
55493;SDS011;41355;50.390;19.096;2023-02-01T15:27:21;333.48;;;89.63;;
55493;SDS011;41355;50.390;19.096;2023-02-01T15:29:51;291.35;;;79.15;;
55493;SDS011;41355;50.390;19.096;2023-02-01T15:32:50;268.60;;;69.70;;
55493;SDS011;41355;50.390;19.096;2023-02-01T15:38:17;201.02;;;59.20;;
55493;SDS011;41355;50.390;19.096;2023-02-01T15:40:52;111.15;;;30.67;;
55493;SDS011;41355;50.390;19.096;2023-02-01T15:43:19;33.05;;;11.40;;
55493;SDS011;41355;50.390;19.096;2023-02-01T15:45:45;51.55;;;16.73;;
55493;SDS011;41355;50.390;19.096;2023-02-01T15:48:12;129.90;;;35.40;;
55493;SDS011;41355;50.390;19.096;2023-02-01T15:50:43;76.22;;;21.42;;
55493;SDS011;41355;50.390;19.096;2023-02-01T15:53:12;19.98;;;7.30;;
55493;SDS011;41355;50.390;19.096;2023-02-01T15:55:40;33.67;;;11.40;;
55493;SDS011;41355;50.390;19.096;2023-02-01T15:58:07;45.22;;;17.38;;
55493;SDS011;41355;50.390;19.096;2023-02-01T16:00:41;92.07;;;27.85;;
55493;SDS011;41355;50.390;19.096;2023-02-01T16:05:59;110.85;;;35.53;;
55493;SDS011;41355;50.390;19.096;2023-02-01T16:08:27;111.32;;;33.00;;
55493;SDS011;41355;50.390;19.096;2023-02-01T16:10:54;430.08;;;119.50;;
55493;SDS011;41355;50.390;19.096;2023-02-01T16:13:20;160.27;;;56.30;;
55493;SDS011;41355;50.390;19.096;2023-02-01T16:15:48;132.55;;;40.92;;
55493;SDS011;41355;50.390;19.096;2023-02-01T16:18:14;128.48;;;40.20;;
55493;SDS011;41355;50.390;19.096;2023-02-01T16:20:41;237.43;;;74.80;;
55493;SDS011;41355;50.390;19.096;2023-02-01T16:23:07;144.20;;;44.92;;
55493;SDS011;41355;50.390;19.096;2023-02-01T16:25:34;187.30;;;55.92;;
55493;SDS011;41355;50.390;19.096;2023-02-01T16:28:00;110.15;;;33.10;;
55493;SDS011;41355;50.390;19.096;2023-02-01T16:30:27;119.25;;;40.63;;
55493;SDS011;41355;50.390;19.096;2023-02-01T16:32:54;87.07;;;29.15;;
55493;SDS011;41355;50.390;19.096;2023-02-01T16:35:28;117.78;;;37.60;;
55493;SDS011;41355;50.390;19.096;2023-02-01T16:37:56;56.50;;;19.77;;
55493;SDS011;41355;50.390;19.096;2023-02-01T16:40:23;154.68;;;43.92;;
55493;SDS011;41355;50.390;19.096;2023-02-01T16:42:50;141.88;;;39.60;;
55493;SDS011;41355;50.390;19.096;2023-02-01T16:45:16;61.58;;;22.35;;
55493;SDS011;41355;50.390;19.096;2023-02-01T16:47:45;137.45;;;41.28;;